Socorro, New Mexico
Current Conditions -  °F | °C
As of 2:55 AM on Saturday 25 Oct 2014 (Local Time) from KONM Reporting Station
Clear Clear  
Wind Chill: 48°   Ceiling: Unl
Heat Index: 49°   Visibility: 10mi
Dew Point: 41°   Wind: 5mph
Humidity: 73%   Direction: 290°WNW
Pressure: 30.27"   Gusts: NA
Location:  34.06°N, 106.89°W
Report Text: KONM 250855Z AUTO 29004KT 10SM CLR 10/05 A3027 RMK AO2 T00970051
Loading
Personal Weather Stations






























Interactive Weather Map New forecast layout! Learn more

10-Day Weather Forecast

Advertisements
Track Severe Weather on mobile